createdAt,value
2019-03-03T00:01:23.325Z,100554.09
2019-03-03T00:03:53.777Z,100552.14
2019-03-03T00:06:23.430Z,100553.85
2019-03-03T00:08:52.713Z,100554.09
2019-03-03T00:11:22.028Z,100551.30
2019-03-03T00:13:51.783Z,100548.22
2019-03-03T00:16:21.124Z,100552.14
2019-03-03T00:18:50.461Z,100547.29
2019-03-03T00:21:20.242Z,100549.20
2019-03-03T00:23:49.543Z,100559.70
2019-03-03T00:26:18.825Z,100559.93
2019-03-03T00:28:48.507Z,100558.38
2019-03-03T00:31:20.105Z,100552.13
2019-03-03T00:33:49.354Z,100547.52
2019-03-03T00:36:19.555Z,100547.66
2019-03-03T00:39:06.132Z,100556.24
2019-03-03T00:41:57.760Z,100550.28
2019-03-03T00:44:51.833Z,100548.28
2019-03-03T00:47:43.314Z,100544.90
2019-03-03T00:50:19.596Z,100545.80
2019-03-03T00:52:54.905Z,100545.80
2019-03-03T00:55:31.352Z,100547.28
2019-03-03T00:58:25.713Z,100559.28
2019-03-03T01:01:03.664Z,100554.89
2019-03-03T01:03:42.478Z,100553.20
2019-03-03T01:06:29.606Z,100555.59
2019-03-03T01:09:12.490Z,100556.14
2019-03-03T01:11:53.535Z,100554.59
2019-03-03T01:15:00.351Z,100550.98
2019-03-03T01:17:35.686Z,100554.66
2019-03-03T01:20:12.861Z,100545.74
2019-03-03T01:23:04.087Z,100549.73
2019-03-03T01:25:39.942Z,100548.19
2019-03-03T01:28:09.261Z,100549.13
2019-03-03T01:30:38.552Z,100549.58
2019-03-03T01:33:07.799Z,100546.18
2019-03-03T01:35:37.242Z,100541.54
2019-03-03T01:38:06.955Z,100530.98
2019-03-03T01:40:36.200Z,100538.78
2019-03-03T01:43:05.560Z,100543.64
2019-03-03T01:45:35.168Z,100535.82
2019-03-03T01:48:06.505Z,100539.45
2019-03-03T01:50:35.769Z,100537.87
2019-03-03T01:53:05.297Z,100536.83
2019-03-03T01:55:34.537Z,100539.09
2019-03-03T01:58:06.897Z,100523.43
2019-03-03T02:00:36.479Z,100526.42
2019-03-03T02:03:06.977Z,100524.65
2019-03-03T02:05:36.713Z,100521.70
2019-03-03T02:08:06.340Z,100519.72
2019-03-03T02:10:35.602Z,100508.36
2019-03-03T02:13:05.039Z,100503.33
2019-03-03T02:15:34.790Z,100492.47
2019-03-03T02:18:06.875Z,100490.21
2019-03-03T02:20:36.182Z,100493.83
2019-03-03T02:23:05.765Z,100490.97
2019-03-03T02:25:35.004Z,100497.16
2019-03-03T02:28:05.845Z,100495.22
2019-03-03T02:30:35.468Z,100493.84
2019-03-03T02:33:04.816Z,100489.34
2019-03-03T02:35:34.130Z,100479.00
2019-03-03T02:38:06.824Z,100474.98
2019-03-03T02:40:36.084Z,100474.91
2019-03-03T02:43:05.371Z,100468.89
2019-03-03T02:45:34.985Z,100460.73
2019-03-03T02:48:04.800Z,100461.09
2019-03-03T02:50:34.119Z,100460.42
2019-03-03T02:53:03.824Z,100458.66
2019-03-03T02:55:33.092Z,100451.92
2019-03-03T02:58:03.108Z,100453.09
2019-03-03T03:00:33.797Z,100447.92
2019-03-03T03:03:03.906Z,100437.58
2019-03-03T03:05:50.475Z,100439.66
2019-03-03T03:08:24.119Z,100440.49
2019-03-03T03:11:10.891Z,100437.22
2019-03-03T03:13:49.897Z,100440.09
2019-03-03T03:16:25.338Z,100437.41
2019-03-03T03:19:03.128Z,100443.56
2019-03-03T03:21:39.791Z,100434.66
2019-03-03T03:24:45.462Z,100430.66
2019-03-03T03:27:35.762Z,100429.44
2019-03-03T03:30:34.824Z,100432.68
2019-03-03T03:33:21.557Z,100434.46
2019-03-03T03:36:25.259Z,100432.47
2019-03-03T03:39:09.544Z,100430.91
2019-03-03T03:41:45.066Z,100427.67
2019-03-03T03:44:43.462Z,100421.57
2019-03-03T03:47:24.238Z,100421.57
2019-03-03T03:50:12.486Z,100424.34
2019-03-03T03:53:01.868Z,100430.08
2019-03-03T03:55:56.222Z,100418.73
2019-03-03T03:58:46.917Z,100419.80
2019-03-03T04:01:23.865Z,100421.11
2019-03-03T04:04:19.079Z,100417.62
2019-03-03T04:07:07.267Z,100423.48
2019-03-03T04:10:10.394Z,100423.31
2019-03-03T04:12:58.697Z,100426.48
2019-03-03T04:15:46.150Z,100425.09
2019-03-03T04:18:22.458Z,100424.89
2019-03-03T04:21:26.004Z,100436.14
2019-03-03T04:24:09.440Z,100423.59
2019-03-03T04:26:59.176Z,100428.30
2019-03-03T04:29:35.898Z,100434.75
2019-03-03T04:32:21.201Z,100434.08
2019-03-03T04:35:15.474Z,100438.00
2019-03-03T04:38:04.387Z,100440.03
2019-03-03T04:40:54.003Z,100437.76
2019-03-03T04:43:40.712Z,100438.31
2019-03-03T04:46:29.147Z,100428.67
2019-03-03T04:49:18.921Z,100424.89
2019-03-03T04:52:04.503Z,100417.48
2019-03-03T04:54:53.134Z,100409.02
2019-03-03T04:57:44.428Z,100404.91
2019-03-03T05:00:33.838Z,100412.51
2019-03-03T05:03:26.829Z,100410.42
2019-03-03T05:06:08.415Z,100409.94
2019-03-03T05:09:02.584Z,100416.41
2019-03-03T05:12:29.908Z,100422.20
2019-03-03T05:15:05.093Z,100416.73
2019-03-03T05:17:41.743Z,100418.27
2019-03-03T05:20:11.309Z,100428.30
2019-03-03T05:22:40.827Z,100427.94
2019-03-03T05:25:10.467Z,100426.09
2019-03-03T05:27:39.739Z,100420.13
2019-03-03T05:30:09.042Z,100413.73
2019-03-03T05:32:38.677Z,100406.91
2019-03-03T05:35:09.526Z,100404.83
2019-03-03T05:37:38.806Z,100399.84
2019-03-03T05:40:08.456Z,100399.76
2019-03-03T05:42:37.770Z,100398.05
2019-03-03T05:45:07.140Z,100397.59
2019-03-03T05:47:36.756Z,100399.58
2019-03-03T05:50:09.071Z,100393.65
2019-03-03T05:52:38.327Z,100386.01
2019-03-03T05:55:07.993Z,100381.06
2019-03-03T05:57:37.312Z,100374.66
2019-03-03T06:00:07.013Z,100384.00
2019-03-03T06:02:37.685Z,100367.26
2019-03-03T06:05:07.192Z,100363.06
2019-03-03T06:07:36.609Z,100362.92
2019-03-03T06:10:11.545Z,100359.53
2019-03-03T06:12:41.044Z,100346.31
2019-03-03T06:15:13.039Z,100337.45
2019-03-03T06:17:42.771Z,100339.17
2019-03-03T06:20:12.614Z,100333.61
2019-03-03T06:22:41.831Z,100334.74
2019-03-03T06:25:12.668Z,100335.14
2019-03-03T06:27:41.922Z,100343.09
2019-03-03T06:30:12.681Z,100341.69
2019-03-03T06:32:42.323Z,100328.56
2019-03-03T06:35:11.763Z,100331.50
2019-03-03T06:37:41.000Z,100328.02
2019-03-03T06:40:11.039Z,100323.84
2019-03-03T06:42:40.277Z,100332.09
2019-03-03T06:45:10.926Z,100319.83
2019-03-03T06:47:40.504Z,100331.64
2019-03-03T06:50:11.254Z,100331.73
2019-03-03T06:52:40.560Z,100327.89
2019-03-03T06:55:10.532Z,100329.02
2019-03-03T06:57:39.925Z,100342.23
2019-03-03T07:00:12.697Z,100335.80
2019-03-03T07:02:42.267Z,100340.84
2019-03-03T07:05:11.692Z,100341.23
2019-03-03T07:07:41.199Z,100348.60
2019-03-03T07:10:14.375Z,100345.08
2019-03-03T07:12:43.668Z,100351.66
2019-03-03T07:15:14.608Z,100353.09
2019-03-03T07:17:44.254Z,100346.20
2019-03-03T07:20:14.084Z,100348.67
2019-03-03T07:22:43.408Z,100357.38
2019-03-03T07:25:13.242Z,100349.97
2019-03-03T07:27:42.592Z,100352.63
2019-03-03T07:30:13.463Z,100350.75
2019-03-03T07:33:01.920Z,100362.64
2019-03-03T07:35:31.179Z,100364.03
2019-03-03T07:38:00.723Z,100367.14
2019-03-03T07:40:30.021Z,100364.86
2019-03-03T07:42:59.308Z,100368.69
2019-03-03T07:45:28.825Z,100360.45
2019-03-03T07:47:58.529Z,100362.86
2019-03-03T07:50:27.866Z,100362.55
2019-03-03T07:52:57.387Z,100361.60
2019-03-03T07:55:26.752Z,100371.19
2019-03-03T07:57:56.529Z,100371.20
2019-03-03T08:00:26.070Z,100372.96
2019-03-03T08:02:55.360Z,100380.08
2019-03-03T08:05:24.619Z,100365.30
2019-03-03T08:07:54.191Z,100361.03
2019-03-03T08:10:23.486Z,100363.11
2019-03-03T08:12:52.739Z,100369.00
2019-03-03T08:15:22.292Z,100366.26
2019-03-03T08:17:51.578Z,100369.13
2019-03-03T08:20:20.847Z,100361.55
2019-03-03T08:22:50.407Z,100356.36
2019-03-03T08:25:19.709Z,100357.50
2019-03-03T08:27:48.968Z,100360.17
2019-03-03T08:30:18.515Z,100359.41
2019-03-03T08:32:47.862Z,100363.88
2019-03-03T08:35:17.104Z,100358.30
2019-03-03T08:37:46.734Z,100361.50
2019-03-03T08:40:16.070Z,100369.58
2019-03-03T08:43:00.864Z,100372.81
2019-03-03T08:45:55.376Z,100369.69
2019-03-03T08:48:35.590Z,100374.53
2019-03-03T08:51:11.591Z,100375.30
2019-03-03T08:54:05.791Z,100373.86
2019-03-03T08:57:08.943Z,100363.10
2019-03-03T09:00:03.414Z,100370.20
2019-03-03T09:02:50.001Z,100374.65
2019-03-03T09:05:26.623Z,100383.02
2019-03-03T09:08:12.972Z,100378.02
2019-03-03T09:11:04.419Z,100382.92
2019-03-03T09:13:49.242Z,100377.58
2019-03-03T09:16:32.479Z,100374.38
2019-03-03T09:19:19.081Z,100375.44
2019-03-03T09:21:58.108Z,100381.12
2019-03-03T09:24:46.361Z,100379.80
2019-03-03T09:27:36.133Z,100378.91
2019-03-03T09:30:30.916Z,100370.02
2019-03-03T09:33:19.380Z,100368.75
2019-03-03T09:36:13.663Z,100377.86
2019-03-03T09:39:05.639Z,100366.37
2019-03-03T09:42:08.670Z,100367.74
2019-03-03T09:44:49.378Z,100363.09
2019-03-03T09:47:30.471Z,100361.16
2019-03-03T09:50:25.946Z,100358.84
2019-03-03T09:53:32.102Z,100357.69
2019-03-03T09:56:13.994Z,100356.00
2019-03-03T09:59:00.529Z,100360.30
2019-03-03T10:01:44.128Z,100355.91
2019-03-03T10:04:23.016Z,100352.37
2019-03-03T10:07:17.476Z,100351.45
2019-03-03T10:09:57.794Z,100349.33
2019-03-03T10:12:46.391Z,100342.95
2019-03-03T10:15:50.082Z,100343.06
2019-03-03T10:18:38.649Z,100339.93
2019-03-03T10:21:32.955Z,100343.82
2019-03-03T10:24:13.874Z,100331.55
2019-03-03T10:27:11.410Z,100340.78
2019-03-03T10:29:54.749Z,100340.28
2019-03-03T10:32:38.370Z,100323.75
2019-03-03T10:35:30.369Z,100335.78
2019-03-03T10:38:19.472Z,100329.25
2019-03-03T10:41:08.232Z,100333.49
2019-03-03T10:43:47.659Z,100327.38
2019-03-03T10:46:54.363Z,100329.41
2019-03-03T10:49:34.105Z,100328.89
2019-03-03T10:52:10.849Z,100324.65
2019-03-03T10:54:49.430Z,100326.62
2019-03-03T10:57:56.479Z,100326.92
2019-03-03T11:00:47.718Z,100320.11
2019-03-03T11:03:39.036Z,100307.45
2019-03-03T11:06:45.839Z,100304.83
2019-03-03T11:09:31.719Z,100303.01
2019-03-03T11:12:30.637Z,100292.16
2019-03-03T11:15:22.112Z,100297.87
2019-03-03T11:18:26.600Z,100291.73
2019-03-03T11:21:24.119Z,100287.78
2019-03-03T11:24:00.030Z,100295.68
2019-03-03T11:27:00.745Z,100294.61
2019-03-03T11:29:55.334Z,100291.39
2019-03-03T11:32:42.658Z,100290.93
2019-03-03T11:35:29.942Z,100290.67
2019-03-03T11:38:37.568Z,100294.36
2019-03-03T11:41:24.775Z,100288.48
2019-03-03T11:44:04.481Z,100288.96
2019-03-03T11:46:53.091Z,100285.46
2019-03-03T11:49:44.928Z,100282.36
2019-03-03T11:52:29.354Z,100285.75
2019-03-03T11:55:24.269Z,100282.27
2019-03-03T11:58:21.729Z,100279.55
2019-03-03T12:01:13.806Z,100270.42
2019-03-03T12:04:08.463Z,100268.45
2019-03-03T12:07:06.263Z,100254.25
2019-03-03T12:09:58.066Z,100252.60
2019-03-03T12:12:53.474Z,100253.82
2019-03-03T12:15:34.944Z,100256.73
2019-03-03T12:18:24.777Z,100249.30
2019-03-03T12:21:12.220Z,100239.62
2019-03-03T12:23:59.366Z,100236.23
2019-03-03T12:27:04.329Z,100231.08
2019-03-03T12:29:56.495Z,100228.34
2019-03-03T12:32:35.268Z,100226.92
2019-03-03T12:35:39.448Z,100219.59
2019-03-03T12:38:26.750Z,100221.11
2019-03-03T12:41:15.113Z,100217.63
2019-03-03T12:44:00.910Z,100212.75
2019-03-03T12:46:45.906Z,100215.17
2019-03-03T12:49:26.979Z,100215.09
2019-03-03T12:52:17.839Z,100203.79
2019-03-03T12:55:18.473Z,100206.61
2019-03-03T12:58:13.570Z,100200.02
2019-03-03T13:01:04.549Z,100190.63
2019-03-03T13:03:46.209Z,100184.80
2019-03-03T13:06:40.695Z,100188.64
2019-03-03T13:09:20.514Z,100179.06
2019-03-03T13:12:15.418Z,100180.63
2019-03-03T13:15:05.265Z,100171.12
2019-03-03T13:17:53.875Z,100161.05
2019-03-03T13:20:33.248Z,100154.11
2019-03-03T13:23:20.408Z,100155.22
2019-03-03T13:26:15.061Z,100147.88
2019-03-03T13:29:06.563Z,100136.94
2019-03-03T13:32:01.241Z,100125.36
2019-03-03T13:34:48.519Z,100121.42
2019-03-03T13:37:35.759Z,100128.00
2019-03-03T13:40:40.261Z,100116.61
2019-03-03T13:43:10.355Z,100120.50
2019-03-03T13:45:40.147Z,100118.34
2019-03-03T13:48:13.031Z,100125.79
2019-03-03T13:50:44.781Z,100121.83
2019-03-03T13:53:14.531Z,100124.69
2019-03-03T13:55:44.296Z,100118.56
2019-03-03T13:58:14.487Z,100120.52
2019-03-03T14:00:44.464Z,100108.50
2019-03-03T14:03:14.179Z,100110.66
2019-03-03T14:05:44.417Z,100094.17
2019-03-03T14:08:14.156Z,100095.34
2019-03-03T14:10:44.994Z,100090.55
2019-03-03T14:13:15.120Z,100086.22
2019-03-03T14:15:45.129Z,100089.66
2019-03-03T14:18:14.792Z,100091.58
2019-03-03T14:20:51.487Z,100089.48
2019-03-03T14:23:21.250Z,100083.69
2019-03-03T14:25:52.270Z,100083.69
2019-03-03T14:28:22.033Z,100085.25
2019-03-03T14:30:51.885Z,100069.83
2019-03-03T14:33:21.967Z,100067.05
2019-03-03T14:35:52.126Z,100057.41
2019-03-03T14:38:21.810Z,100062.88
2019-03-03T14:40:55.038Z,100062.52
2019-03-03T14:43:24.807Z,100066.03
2019-03-03T14:45:54.500Z,100072.43
2019-03-03T14:48:24.709Z,100067.95
2019-03-03T14:50:56.870Z,100059.07
2019-03-03T14:53:26.155Z,100056.09
2019-03-03T14:55:56.442Z,100053.63
2019-03-03T14:58:26.352Z,100042.30
2019-03-03T15:00:56.486Z,100051.35
2019-03-03T15:03:26.380Z,100037.58
2019-03-03T15:05:56.411Z,100032.78
2019-03-03T15:08:26.491Z,100036.42
2019-03-03T15:10:56.340Z,100033.34
2019-03-03T15:13:26.286Z,100020.75
2019-03-03T15:16:05.335Z,100014.74
2019-03-03T15:18:35.160Z,100012.58
2019-03-03T15:21:05.499Z,100008.31
2019-03-03T15:23:35.224Z,100012.54
2019-03-03T15:26:07.918Z,100001.66
2019-03-03T15:28:37.843Z,99999.36
2019-03-03T15:31:07.854Z,100009.02
2019-03-03T15:33:38.655Z,99995.92
2019-03-03T15:36:11.358Z,99995.03
2019-03-03T15:38:42.009Z,99994.72
2019-03-03T15:41:11.760Z,99986.08
2019-03-03T15:43:41.493Z,99990.96
2019-03-03T15:46:11.817Z,99986.08
2019-03-03T15:48:41.502Z,99981.50
2019-03-03T15:51:11.281Z,99979.06
2019-03-03T15:53:41.542Z,99976.12
2019-03-03T15:56:11.952Z,99977.44
2019-03-03T15:58:41.772Z,99972.90
2019-03-03T16:01:15.907Z,99968.25
2019-03-03T16:03:45.917Z,99968.48
2019-03-03T16:06:15.759Z,99962.24
2019-03-03T16:08:47.221Z,99947.39
2019-03-03T16:11:17.042Z,99945.50
2019-03-03T16:13:46.909Z,99941.73
2019-03-03T16:16:17.116Z,99935.84
2019-03-03T16:18:48.317Z,99925.61
2019-03-03T16:21:18.164Z,99917.91
2019-03-03T16:23:48.357Z,99913.07
2019-03-03T16:26:18.040Z,99909.13
2019-03-03T16:28:47.805Z,99901.22
2019-03-03T16:31:17.686Z,99907.88
2019-03-03T16:33:50.073Z,99903.92
2019-03-03T16:36:20.415Z,99913.34
2019-03-03T16:38:50.249Z,99899.31
2019-03-03T16:41:20.057Z,99898.92
2019-03-03T16:43:49.884Z,99900.28
2019-03-03T16:46:19.704Z,99891.80
2019-03-03T16:48:49.837Z,99897.56
2019-03-03T16:51:22.102Z,99893.42
2019-03-03T16:53:53.940Z,99892.88
2019-03-03T16:56:23.924Z,99905.70
2019-03-03T16:58:53.738Z,99895.58
2019-03-03T17:01:23.564Z,99900.05
2019-03-03T17:03:53.861Z,99894.89
2019-03-03T17:06:26.146Z,99898.00
2019-03-03T17:08:59.177Z,99907.45
2019-03-03T17:11:29.112Z,99907.33
2019-03-03T17:13:59.738Z,99904.12
2019-03-03T17:16:29.822Z,99906.02
2019-03-03T17:18:59.591Z,99911.39
2019-03-03T17:21:29.523Z,99921.28
2019-03-03T17:24:00.328Z,99920.47
2019-03-03T17:26:30.203Z,99917.17
2019-03-03T17:29:00.125Z,99908.49
2019-03-03T17:31:30.433Z,99903.17
2019-03-03T17:34:00.570Z,99904.22
2019-03-03T17:36:30.439Z,99897.25
2019-03-03T17:39:00.536Z,99901.32
2019-03-03T17:41:30.250Z,99894.73
2019-03-03T17:44:00.666Z,99888.45
2019-03-03T17:46:38.777Z,99867.27
2019-03-03T17:49:08.683Z,99864.56
2019-03-03T17:51:38.634Z,99865.59
2019-03-03T17:54:08.896Z,99863.69
2019-03-03T17:56:39.046Z,99860.12
2019-03-03T17:59:08.889Z,99854.52
2019-03-03T18:01:38.832Z,99850.56
2019-03-03T18:04:08.642Z,99853.22
2019-03-03T18:06:39.058Z,99853.30
2019-03-03T18:09:11.398Z,99847.48
2019-03-03T18:11:41.321Z,99845.81
2019-03-03T18:14:11.171Z,99835.31
2019-03-03T18:16:41.581Z,99832.52
2019-03-03T18:19:11.645Z,99835.16
2019-03-03T18:21:42.281Z,99836.74
2019-03-03T18:24:12.546Z,99818.03
2019-03-03T18:26:43.277Z,99819.39
2019-03-03T18:29:13.017Z,99822.72
2019-03-03T18:31:43.170Z,99813.31
2019-03-03T18:34:12.958Z,99810.45
2019-03-03T18:36:42.740Z,99799.03
2019-03-03T18:39:13.290Z,99794.55
2019-03-03T18:41:44.445Z,99800.50
2019-03-03T18:44:14.451Z,99797.09
2019-03-03T18:46:45.713Z,99792.50
2019-03-03T18:49:15.690Z,99801.22
2019-03-03T18:51:46.805Z,99790.41
2019-03-03T18:54:17.050Z,99787.58
2019-03-03T18:56:47.601Z,99789.86
2019-03-03T18:59:17.323Z,99786.27
2019-03-03T19:01:47.631Z,99775.34
2019-03-03T19:04:17.460Z,99760.43
2019-03-03T19:06:48.904Z,99772.52
2019-03-03T19:09:21.356Z,99757.06
2019-03-03T19:11:57.020Z,99747.31
2019-03-03T19:14:28.828Z,99741.08
2019-03-03T19:17:00.856Z,99757.81
2019-03-03T19:19:32.535Z,99744.80
2019-03-03T19:22:04.827Z,99749.75
2019-03-03T19:24:37.167Z,99745.65
2019-03-03T19:27:10.052Z,99745.97
2019-03-03T19:29:40.308Z,99745.84
2019-03-03T19:32:10.440Z,99735.17
2019-03-03T19:34:40.614Z,99743.41
2019-03-03T19:37:10.716Z,99735.40
2019-03-03T19:39:40.893Z,99735.87
2019-03-03T19:42:18.552Z,99739.20
2019-03-03T19:44:48.359Z,99736.72
2019-03-03T19:47:20.601Z,99734.97
2019-03-03T19:49:50.727Z,99736.07
2019-03-03T19:52:20.881Z,99737.81
2019-03-03T19:54:51.334Z,99739.87
2019-03-03T19:57:22.609Z,99726.70
2019-03-03T19:59:52.489Z,99732.41
2019-03-03T20:02:22.402Z,99721.29
2019-03-03T20:04:52.528Z,99701.93
2019-03-03T20:07:22.295Z,99714.56
2019-03-03T20:09:52.876Z,99706.61
2019-03-03T20:12:23.049Z,99709.49
2019-03-03T20:14:52.778Z,99706.71
2019-03-03T20:17:22.514Z,99701.45
2019-03-03T20:19:52.707Z,99698.66
2019-03-03T20:22:22.490Z,99692.02
2019-03-03T20:24:54.372Z,99690.28
2019-03-03T20:27:25.710Z,99686.47
2019-03-03T20:29:55.932Z,99685.36
2019-03-03T20:32:25.745Z,99687.87
2019-03-03T20:34:55.882Z,99687.91
2019-03-03T20:37:25.695Z,99682.14
2019-03-03T20:39:55.420Z,99676.03
2019-03-03T20:42:25.630Z,99674.86
2019-03-03T20:44:55.642Z,99684.34
2019-03-03T20:47:25.459Z,99677.77
2019-03-03T20:49:55.564Z,99662.38
2019-03-03T20:52:28.742Z,99661.12
2019-03-03T20:54:58.539Z,99656.20
2019-03-03T20:57:29.749Z,99654.86
2019-03-03T21:00:00.378Z,99661.97
2019-03-03T21:02:30.095Z,99663.95
2019-03-03T21:05:00.430Z,99649.39
2019-03-03T21:07:30.240Z,99643.98
2019-03-03T21:10:00.375Z,99619.16
2019-03-03T21:12:30.476Z,99626.79
2019-03-03T21:15:00.315Z,99625.00
2019-03-03T21:17:30.059Z,99628.48
2019-03-03T21:20:00.411Z,99629.42
2019-03-03T21:22:30.125Z,99629.02
2019-03-03T21:24:59.819Z,99622.58
2019-03-03T21:27:30.049Z,99619.36
2019-03-03T21:29:59.970Z,99629.30
2019-03-03T21:32:29.716Z,99628.69
2019-03-03T21:35:01.370Z,99614.48
2019-03-03T21:37:31.052Z,99607.19
2019-03-03T21:40:00.973Z,99609.66
2019-03-03T21:42:31.096Z,99593.17
2019-03-03T21:45:00.756Z,99575.01
2019-03-03T21:47:30.444Z,99569.66
2019-03-03T21:50:00.514Z,99568.55
2019-03-03T21:52:31.834Z,99571.75
2019-03-03T21:55:03.906Z,99567.69
2019-03-03T21:57:34.046Z,99565.08
2019-03-03T22:00:04.214Z,99558.94
2019-03-03T22:02:33.660Z,99539.66
2019-03-03T22:05:03.603Z,99527.81
2019-03-03T22:07:32.960Z,99523.28
2019-03-03T22:10:03.366Z,99521.73
2019-03-03T22:12:33.232Z,99508.21
2019-03-03T22:15:02.539Z,99526.74
2019-03-03T22:17:31.862Z,99521.39
2019-03-03T22:20:03.576Z,99514.09
2019-03-03T22:22:32.598Z,99522.94
2019-03-03T22:25:02.003Z,99526.66
2019-03-03T22:27:36.156Z,99520.79
2019-03-03T22:30:07.333Z,99512.02
2019-03-03T22:32:36.643Z,99502.03
2019-03-03T22:35:06.375Z,99494.86
2019-03-03T22:37:36.231Z,99494.91
2019-03-03T22:40:09.199Z,99490.99
2019-03-03T22:42:40.047Z,99482.48
2019-03-03T22:45:10.673Z,99471.25
2019-03-03T22:47:40.032Z,99471.98
2019-03-03T22:50:10.725Z,99460.84
2019-03-03T22:52:40.006Z,99447.16
2019-03-03T22:55:09.899Z,99451.84
2019-03-03T22:57:39.770Z,99443.55
2019-03-03T23:00:44.306Z,99430.78
2019-03-03T23:03:16.007Z,99426.96
2019-03-03T23:06:15.308Z,99424.20
2019-03-03T23:08:53.526Z,99416.69
2019-03-03T23:12:04.567Z,99414.74
2019-03-03T23:14:55.335Z,99403.54
2019-03-03T23:18:00.017Z,99408.53
2019-03-03T23:20:41.393Z,99417.68
2019-03-03T23:23:57.081Z,99420.64
2019-03-03T23:26:26.815Z,99431.09
2019-03-03T23:28:56.095Z,99432.27
2019-03-03T23:31:25.364Z,99435.13
2019-03-03T23:33:55.156Z,99423.25
2019-03-03T23:36:24.365Z,99411.63
2019-03-03T23:38:53.859Z,99413.55
2019-03-03T23:41:23.538Z,99414.77
2019-03-03T23:43:52.861Z,99406.90
2019-03-03T23:46:22.070Z,99393.14
2019-03-03T23:48:51.861Z,99388.00
2019-03-03T23:51:21.777Z,99388.09
2019-03-03T23:53:51.072Z,99385.14
2019-03-03T23:56:20.793Z,99378.80
2019-03-03T23:58:50.055Z,99388.66
